Time;durP1;ratioP1;P1;durP2;ratioP2;P2;SDS_P1;SDS_P2;PMS_P1;PMS_P2;Temp;Humidity;BMP_temperature;BMP_pressure;BME280_temperature;BME280_humidity;BME280_pressure;Samples;Min_cycle;Max_cycle;Signal;HPM_P1;HPM_P2
2022/03/25 00:01:53;;;;;;;;;;;;;;;10.38;24.40;99331.16;5022984;28;19932;-67
2022/03/25 00:04:19;;;;;;;;;;;;;;;10.37;24.27;99326.78;5020600;28;19929;-67
2022/03/25 00:06:45;;;;;;;;;;;;;;;10.32;24.56;99330.38;5026679;28;20300;-67
2022/03/25 00:09:11;;;;;;;;;;;;;;;10.32;24.43;99333.13;5020625;28;19925;-67
2022/03/25 00:11:37;;;;;;;;;;;;;;;10.28;24.64;99337.50;5021673;28;19925;-67
2022/03/25 00:14:03;;;;;;;;;;;;;;;10.21;24.90;99326.09;5018549;28;20005;-66
2022/03/25 00:16:29;;;;;;;;;;;;;;;10.06;25.09;99336.00;5017649;28;19945;-68
2022/03/25 00:18:55;;;;;;;;;;;;;;;9.98;25.06;99333.06;5025103;28;20245;-67
2022/03/25 00:21:21;;;;;;;;;;;;;;;10.03;25.18;99331.13;5028037;28;19925;-67
2022/03/25 00:23:47;;;;;;;;;;;;;;;10.06;25.22;99340.66;5029701;28;20328;-68
2022/03/25 00:26:13;;;;;;;;;;;;;;;10.11;25.16;99342.53;5022383;28;19926;-66
2022/03/25 00:28:39;;;;;;;;;;;;;;;9.90;25.59;99329.00;5025492;28;19925;-67
2022/03/25 00:31:09;;;;;;;;;;;;;;;9.77;25.86;99335.91;5008841;28;20020;-65
2022/03/25 00:33:38;;;;;;;;;;;;;;;9.68;26.20;99341.16;5023677;28;19967;-66
2022/03/25 00:36:07;;;;;;;;;;;;;;;9.63;26.51;99336.53;5030900;28;20064;-66
2022/03/25 00:38:32;;;;;;;;;;;;;;;9.57;26.39;99334.09;5028957;28;20027;-66
2022/03/25 00:40:58;;;;;;;;;;;;;;;9.39;26.79;99314.50;5019690;28;19925;-66
2022/03/25 00:43:24;;;;;;;;;;;;;;;9.47;26.81;99332.22;5024135;28;19952;-66
2022/03/25 00:45:51;;;;;;;;;;;;;;;9.61;26.59;99335.16;5024333;28;20301;-64
2022/03/25 00:48:17;;;;;;;;;;;;;;;9.69;26.24;99333.75;5007969;28;20429;-66
2022/03/25 00:50:44;;;;;;;;;;;;;;;9.65;26.29;99328.03;5019907;28;20048;-66
2022/03/25 00:53:12;;;;;;;;;;;;;;;9.70;26.14;99328.03;5027773;28;19971;-66
2022/03/25 00:55:38;;;;;;;;;;;;;;;9.76;26.06;99329.63;5034470;28;19924;-66
2022/03/25 00:58:04;;;;;;;;;;;;;;;9.75;25.92;99327.16;5028050;28;20338;-65
2022/03/25 01:00:30;;;;;;;;;;;;;;;9.76;25.91;99324.16;5012554;28;20191;-66
2022/03/25 01:02:57;;;;;;;;;;;;;;;9.72;26.01;99330.47;5024684;28;19940;-65
2022/03/25 01:05:22;;;;;;;;;;;;;;;9.77;26.02;99330.44;5022280;28;20016;-66
2022/03/25 01:07:50;;;;;;;;;;;;;;;9.74;26.01;99322.81;5028677;28;20019;-65
2022/03/25 01:10:15;;;;;;;;;;;;;;;9.68;26.16;99316.56;5024911;28;20372;-66
2022/03/25 01:12:41;;;;;;;;;;;;;;;9.64;26.21;99315.47;5023805;28;19932;-65
2022/03/25 01:15:08;;;;;;;;;;;;;;;9.60;26.17;99325.34;5032311;28;20299;-66
2022/03/25 01:17:34;;;;;;;;;;;;;;;9.57;26.41;99320.44;5030833;28;20416;-65
2022/03/25 01:20:00;;;;;;;;;;;;;;;9.49;26.53;99321.84;5013342;28;19925;-65
2022/03/25 01:22:26;;;;;;;;;;;;;;;9.45;26.34;99313.38;5016334;28;19931;-66
2022/03/25 01:24:53;;;;;;;;;;;;;;;9.29;26.44;99298.16;5042403;28;20026;-66
2022/03/25 01:27:22;;;;;;;;;;;;;;;9.37;26.69;99319.44;5036465;28;19925;-66
2022/03/25 01:29:47;;;;;;;;;;;;;;;9.35;26.58;99306.06;5034651;28;19929;-66
2022/03/25 01:32:13;;;;;;;;;;;;;;;9.30;26.72;99308.81;5038933;28;20309;-71
2022/03/25 01:34:39;;;;;;;;;;;;;;;9.30;26.68;99308.81;5038299;28;19960;-71
2022/03/25 01:37:06;;;;;;;;;;;;;;;9.27;26.69;99305.81;5033810;28;20371;-71
2022/03/25 01:39:31;;;;;;;;;;;;;;;9.20;26.95;99304.19;5036374;28;19951;-71
2022/03/25 01:41:59;;;;;;;;;;;;;;;9.18;26.83;99316.50;5030115;28;20347;-70
2022/03/25 01:44:25;;;;;;;;;;;;;;;9.20;27.01;99317.03;5028886;28;20023;-71
2022/03/25 01:46:51;;;;;;;;;;;;;;;9.17;27.03;99310.19;5031439;28;19932;-70
2022/03/25 01:49:18;;;;;;;;;;;;;;;9.19;27.06;99302.56;5026460;28;19979;-71
2022/03/25 01:51:44;;;;;;;;;;;;;;;9.18;27.05;99311.03;5033130;28;19927;-71
2022/03/25 01:54:18;;;;;;;;;;;;;;;9.14;26.98;99315.41;5032421;28;19971;-71
2022/03/25 01:56:44;;;;;;;;;;;;;;;9.11;27.09;99316.78;5031728;28;20277;-71
2022/03/25 01:59:11;;;;;;;;;;;;;;;9.08;27.06;99317.34;5013630;28;20392;-71
2022/03/25 02:01:40;;;;;;;;;;;;;;;9.10;27.17;99314.31;5031588;28;19931;-71
2022/03/25 02:04:06;;;;;;;;;;;;;;;8.97;27.39;99321.16;5031348;28;19955;-71
2022/03/25 02:06:32;;;;;;;;;;;;;;;8.98;27.39;99323.63;5025274;28;19925;-71
2022/03/25 02:08:58;;;;;;;;;;;;;;;9.02;27.41;99332.91;5025527;28;19971;-71
2022/03/25 02:11:26;;;;;;;;;;;;;;;9.00;27.38;99326.91;5042298;28;19930;-65
2022/03/25 02:13:52;;;;;;;;;;;;;;;9.00;27.41;99332.34;5011893;28;19963;-67
2022/03/25 02:16:19;;;;;;;;;;;;;;;8.98;27.51;99339.16;4994384;28;20576;-71
2022/03/25 02:18:45;;;;;;;;;;;;;;;8.91;27.79;99337.56;4998999;28;19932;-71
2022/03/25 02:21:12;;;;;;;;;;;;;;;8.96;27.74;99341.34;5029070;28;19979;-71
2022/03/25 02:23:39;;;;;;;;;;;;;;;8.90;27.79;99343.28;5029971;28;20455;-71
2022/03/25 02:26:05;;;;;;;;;;;;;;;8.87;27.94;99332.91;5008581;28;20348;-75
2022/03/25 02:28:31;;;;;;;;;;;;;;;8.84;27.96;99339.72;4998041;28;19924;-75
2022/03/25 02:30:58;;;;;;;;;;;;;;;8.82;28.02;99350.09;5014181;28;19925;-75
2022/03/25 02:33:24;;;;;;;;;;;;;;;8.76;28.12;99346.56;5015119;28;19929;-75
2022/03/25 02:35:50;;;;;;;;;;;;;;;8.66;28.44;99346.53;5024147;28;19932;-76
2022/03/25 02:38:18;;;;;;;;;;;;;;;8.61;28.63;99347.38;5029464;28;19964;-75
2022/03/25 02:40:45;;;;;;;;;;;;;;;8.65;28.61;99353.91;5023526;28;19929;-77
2022/03/25 02:43:11;;;;;;;;;;;;;;;8.83;28.32;99342.75;5002074;28;19929;-77
2022/03/25 02:45:42;;;;;;;;;;;;;;;8.86;28.26;99344.91;5028116;28;19925;-77
2022/03/25 02:48:08;;;;;;;;;;;;;;;8.80;28.42;99339.44;5020074;28;20389;-76
2022/03/25 02:50:35;;;;;;;;;;;;;;;8.76;28.64;99345.75;5022958;28;19929;-76
2022/03/25 02:53:02;;;;;;;;;;;;;;;8.71;28.57;99352.00;5020173;28;19925;-77
2022/03/25 02:55:28;;;;;;;;;;;;;;;8.70;28.54;99350.38;5014771;28;20024;-74
2022/03/25 02:57:55;;;;;;;;;;;;;;;8.77;28.51;99342.72;5030897;28;20307;-74
2022/03/25 03:00:22;;;;;;;;;;;;;;;8.78;28.33;99347.09;5029005;28;19925;-75
2022/03/25 03:02:48;;;;;;;;;;;;;;;8.60;28.96;99348.47;5027851;28;19971;-75
2022/03/25 03:05:17;;;;;;;;;;;;;;;8.48;29.22;99356.06;5022171;28;20458;-74
2022/03/25 03:07:44;;;;;;;;;;;;;;;8.38;29.60;99356.88;5030512;28;19924;-75
2022/03/25 03:10:10;;;;;;;;;;;;;;;8.33;29.78;99362.31;5021613;28;19925;-75
2022/03/25 03:12:37;;;;;;;;;;;;;;;8.31;29.62;99359.03;5020971;28;19929;-75
2022/03/25 03:15:05;;;;;;;;;;;;;;;8.29;29.96;99351.16;5029872;28;20328;-75
2022/03/25 03:17:31;;;;;;;;;;;;;;;8.24;30.12;99359.31;5013413;28;19957;-75
2022/03/25 03:19:57;;;;;;;;;;;;;;;8.24;29.85;99359.31;5019014;28;20397;-74
2022/03/25 03:22:23;;;;;;;;;;;;;;;8.27;30.01;99366.91;5023759;28;19936;-74
2022/03/25 03:24:49;;;;;;;;;;;;;;;8.34;29.98;99361.22;5018822;28;19924;-75
2022/03/25 03:27:15;;;;;;;;;;;;;;;8.31;29.67;99364.50;5026499;28;19937;-71
2022/03/25 03:29:41;;;;;;;;;;;;;;;8.31;30.00;99368.03;5025435;28;19925;-71
2022/03/25 03:32:09;;;;;;;;;;;;;;;8.35;30.07;99368.28;5028471;28;19925;-73
2022/03/25 03:34:34;;;;;;;;;;;;;;;8.35;30.20;99357.41;5015798;28;20020;-72
2022/03/25 03:37:01;;;;;;;;;;;;;;;8.31;30.22;99367.22;5025088;28;19931;-71
2022/03/25 03:39:26;;;;;;;;;;;;;;;8.22;30.61;99367.75;5022916;28;20019;-72
2022/03/25 03:41:52;;;;;;;;;;;;;;;8.12;30.92;99364.16;5020495;28;19929;-72
2022/03/25 03:44:18;;;;;;;;;;;;;;;8.00;31.30;99378.88;5012010;28;19925;-71
2022/03/25 03:46:43;;;;;;;;;;;;;;;7.98;31.59;99377.50;5024351;28;20035;-71
2022/03/25 03:49:10;;;;;;;;;;;;;;;7.93;31.76;99376.41;5025315;28;19925;-72
2022/03/25 03:51:37;;;;;;;;;;;;;;;7.89;31.94;99377.19;5023756;28;19925;-72
2022/03/25 03:54:03;;;;;;;;;;;;;;;7.83;32.09;99378.28;5020666;28;19951;-72
2022/03/25 03:56:29;;;;;;;;;;;;;;;7.78;32.21;99379.06;5028288;28;20419;-73
2022/03/25 03:58:55;;;;;;;;;;;;;;;7.76;32.21;99370.34;5032266;28;19925;-72
2022/03/25 04:01:22;;;;;;;;;;;;;;;7.79;32.48;99376.06;5027241;28;19975;-71
2022/03/25 04:03:47;;;;;;;;;;;;;;;7.79;32.56;99369.81;5017320;28;19925;-72
2022/03/25 04:06:14;;;;;;;;;;;;;;;7.79;32.74;99375.25;5023127;28;19956;-73
2022/03/25 04:08:40;;;;;;;;;;;;;;;7.81;32.60;99378.53;5021771;28;19925;-73
2022/03/25 04:11:07;;;;;;;;;;;;;;;7.80;32.86;99372.28;5038411;28;19933;-73
2022/03/25 04:13:33;;;;;;;;;;;;;;;7.83;33.06;99378.28;5029879;28;19955;-73
2022/03/25 04:16:01;;;;;;;;;;;;;;;7.81;33.12;99375.81;5022232;28;19960;-73
2022/03/25 04:18:27;;;;;;;;;;;;;;;7.78;33.18;99374.44;5012721;28;19932;-73
2022/03/25 04:20:53;;;;;;;;;;;;;;;7.82;33.15;99376.63;5028255;28;19925;-73
2022/03/25 04:23:20;;;;;;;;;;;;;;;7.88;33.09;99376.41;5012451;28;20346;-73
2022/03/25 04:25:46;;;;;;;;;;;;;;;7.91;32.82;99377.75;5022899;28;19975;-73
2022/03/25 04:28:12;;;;;;;;;;;;;;;7.98;32.83;99380.22;5022540;28;19972;-73
2022/03/25 04:30:38;;;;;;;;;;;;;;;8.02;32.59;99371.25;5024771;28;19925;-72
2022/03/25 04:33:04;;;;;;;;;;;;;;;8.09;32.59;99377.25;5026948;28;20080;-72
2022/03/25 04:35:30;;;;;;;;;;;;;;;8.17;32.23;99373.19;5026994;28;19929;-73
2022/03/25 04:37:57;;;;;;;;;;;;;;;8.26;31.75;99370.75;5022897;28;19978;-73
2022/03/25 04:40:25;;;;;;;;;;;;;;;8.33;31.61;99367.75;4993343;28;19933;-67
2022/03/25 04:42:52;;;;;;;;;;;;;;;8.50;31.13;99373.00;5018698;28;19932;-67
2022/03/25 04:45:18;;;;;;;;;;;;;;;8.50;30.95;99370.25;5008892;28;20359;-68
2022/03/25 04:47:44;;;;;;;;;;;;;;;8.51;30.94;99367.28;5021594;28;20072;-68
2022/03/25 04:50:11;;;;;;;;;;;;;;;8.50;30.90;99368.34;5020812;28;19925;-66
2022/03/25 04:52:37;;;;;;;;;;;;;;;8.55;30.75;99367.53;5023605;28;19960;-69
2022/03/25 04:55:03;;;;;;;;;;;;;;;8.59;30.91;99370.53;5023724;28;19925;-68
2022/03/25 04:57:30;;;;;;;;;;;;;;;8.62;30.58;99376.28;5028490;28;19929;-68
2022/03/25 04:59:56;;;;;;;;;;;;;;;8.60;30.65;99373.00;5022243;28;19925;-68
2022/03/25 05:02:22;;;;;;;;;;;;;;;8.57;30.77;99368.06;5019116;28;19994;-68
2022/03/25 05:04:48;;;;;;;;;;;;;;;8.59;30.86;99374.09;5022578;28;19931;-68
2022/03/25 05:07:15;;;;;;;;;;;;;;;8.63;30.79;99377.06;5023401;28;19928;-68
2022/03/25 05:09:41;;;;;;;;;;;;;;;8.56;30.81;99374.63;5019698;28;20419;-69
2022/03/25 05:12:08;;;;;;;;;;;;;;;8.58;30.73;99371.63;5018595;28;20338;-68
2022/03/25 05:14:34;;;;;;;;;;;;;;;8.60;30.82;99374.91;5022104;28;19979;-68
2022/03/25 05:17:00;;;;;;;;;;;;;;;8.61;30.93;99380.09;5022828;28;20436;-67
2022/03/25 05:19:26;;;;;;;;;;;;;;;8.61;31.02;99377.38;5025702;28;19925;-67
2022/03/25 05:21:52;;;;;;;;;;;;;;;8.60;30.94;99374.91;5018203;28;19929;-67
2022/03/25 05:24:18;;;;;;;;;;;;;;;8.62;31.00;99380.88;5022757;28;19933;-67
2022/03/25 05:26:44;;;;;;;;;;;;;;;8.57;31.11;99378.97;5023544;28;20427;-68
2022/03/25 05:29:10;;;;;;;;;;;;;;;8.58;31.02;99377.88;5024051;28;19925;-68
2022/03/25 05:31:37;;;;;;;;;;;;;;;8.55;31.18;99381.16;5021236;28;19925;-68
2022/03/25 05:34:04;;;;;;;;;;;;;;;8.60;31.10;99386.63;5018782;28;19933;-66
2022/03/25 05:36:29;;;;;;;;;;;;;;;8.62;31.11;99370.00;5028726;28;20340;-68
2022/03/25 05:38:56;;;;;;;;;;;;;;;8.60;31.10;99377.63;5022651;28;19936;-66
2022/03/25 05:41:21;;;;;;;;;;;;;;;8.64;30.96;99375.97;5029441;28;19983;-65
2022/03/25 05:43:48;;;;;;;;;;;;;;;8.50;31.53;99386.63;5030715;28;20348;-65
2022/03/25 05:46:13;;;;;;;;;;;;;;;8.41;32.09;99390.91;5029668;28;19971;-68
2022/03/25 05:48:40;;;;;;;;;;;;;;;8.38;32.37;99390.38;5020957;28;19932;-67
2022/03/25 05:51:06;;;;;;;;;;;;;;;8.42;32.55;99384.38;5029222;28;19975;-66
2022/03/25 05:53:32;;;;;;;;;;;;;;;8.44;32.63;99387.69;5029005;28;19929;-67
2022/03/25 05:56:00;;;;;;;;;;;;;;;8.49;32.70;99382.22;5022191;28;19937;-67
2022/03/25 05:58:25;;;;;;;;;;;;;;;8.51;32.63;99390.97;5027478;28;19932;-65
2022/03/25 06:00:51;;;;;;;;;;;;;;;8.60;32.90;99391.25;5026991;28;19925;-66
2022/03/25 06:03:17;;;;;;;;;;;;;;;8.62;32.80;99392.63;5027577;28;19971;-63
2022/03/25 06:05:44;;;;;;;;;;;;;;;8.69;32.94;99396.97;5025437;28;19992;-68
2022/03/25 06:08:10;;;;;;;;;;;;;;;8.77;33.01;99393.72;5023991;28;19925;-67
2022/03/25 06:10:36;;;;;;;;;;;;;;;8.80;32.89;99404.88;5014805;28;19925;-66
2022/03/25 06:13:02;;;;;;;;;;;;;;;8.86;32.77;99407.63;5029405;28;19925;-65
2022/03/25 06:15:28;;;;;;;;;;;;;;;8.82;33.20;99407.34;5027933;28;19971;-64
2022/03/25 06:17:54;;;;;;;;;;;;;;;8.79;33.34;99411.41;5027743;28;20347;-64
2022/03/25 06:20:20;;;;;;;;;;;;;;;8.82;33.39;99412.78;5027533;28;19924;-67
2022/03/25 06:22:49;;;;;;;;;;;;;;;8.85;33.49;99409.50;5007824;28;19925;-66
2022/03/25 06:25:15;;;;;;;;;;;;;;;8.82;33.76;99412.78;5024898;28;19929;-64
2022/03/25 06:27:45;;;;;;;;;;;;;;;8.77;34.13;99418.25;5028276;28;20400;-66
2022/03/25 06:30:12;;;;;;;;;;;;;;;8.76;34.06;99414.69;5021994;28;19925;-66
2022/03/25 06:32:38;;;;;;;;;;;;;;;8.76;34.09;99417.41;5023199;28;19925;-64
2022/03/25 06:35:04;;;;;;;;;;;;;;;8.79;34.06;99418.78;5021575;28;19925;-65
2022/03/25 06:37:30;;;;;;;;;;;;;;;8.80;34.00;99415.78;5012635;28;19933;-67
2022/03/25 06:39:57;;;;;;;;;;;;;;;8.83;33.84;99416.34;5021953;28;19925;-65
2022/03/25 06:42:23;;;;;;;;;;;;;;;8.84;33.93;99418.78;5024804;28;19924;-66
2022/03/25 06:44:49;;;;;;;;;;;;;;;8.88;33.67;99414.41;5027532;28;19932;-67
2022/03/25 06:47:15;;;;;;;;;;;;;;;8.92;33.79;99420.16;5036558;28;20025;-67
2022/03/25 06:49:41;;;;;;;;;;;;;;;8.93;33.87;99414.44;5007596;28;19986;-65
2022/03/25 06:52:08;;;;;;;;;;;;;;;8.92;33.81;99422.88;4997251;28;19929;-69
2022/03/25 06:54:34;;;;;;;;;;;;;;;8.97;33.72;99422.06;5023174;28;19925;-66
2022/03/25 06:57:01;;;;;;;;;;;;;;;9.02;33.71;99425.59;5019945;28;20316;-65
2022/03/25 06:59:27;;;;;;;;;;;;;;;9.08;33.75;99424.50;5032433;28;20006;-65
2022/03/25 07:01:54;;;;;;;;;;;;;;;9.13;33.74;99428.31;5029457;28;19925;-66
2022/03/25 07:04:21;;;;;;;;;;;;;;;9.21;33.84;99425.88;5022433;28;19932;-67
2022/03/25 07:06:48;;;;;;;;;;;;;;;9.29;33.92;99429.13;5020798;28;19956;-66
2022/03/25 07:09:15;;;;;;;;;;;;;;;9.33;33.98;99430.19;5031832;28;19969;-66
2022/03/25 07:11:40;;;;;;;;;;;;;;;9.35;33.93;99428.84;5037271;28;19925;-68
2022/03/25 07:14:07;;;;;;;;;;;;;;;9.43;33.75;99432.91;5020904;28;19933;-69
2022/03/25 07:16:33;;;;;;;;;;;;;;;9.48;33.81;99432.09;5026472;28;20027;-70
2022/03/25 07:18:59;;;;;;;;;;;;;;;9.52;33.74;99435.91;4996354;28;20139;-67
2022/03/25 07:21:25;;;;;;;;;;;;;;;9.58;33.46;99423.88;5014571;28;20047;-69
2022/03/25 07:23:51;;;;;;;;;;;;;;;9.64;33.30;99430.97;5031810;28;19925;-69
2022/03/25 07:26:18;;;;;;;;;;;;;;;9.73;33.17;99428.47;5024924;28;19978;-69
2022/03/25 07:28:43;;;;;;;;;;;;;;;9.89;33.18;99428.41;5028719;28;19929;-70
2022/03/25 07:31:10;;;;;;;;;;;;;;;10.03;33.30;99426.72;5022201;28;19971;-67
2022/03/25 07:33:36;;;;;;;;;;;;;;;10.22;33.03;99431.53;5022215;28;19929;-67
2022/03/25 07:36:02;;;;;;;;;;;;;;;10.37;32.83;99427.88;5026617;28;19925;-69
2022/03/25 07:38:28;;;;;;;;;;;;;;;10.32;32.88;99423.28;5027642;28;19975;-69
2022/03/25 07:40:54;;;;;;;;;;;;;;;10.26;32.89;99424.41;5029684;28;19925;-69
2022/03/25 07:43:20;;;;;;;;;;;;;;;10.24;32.75;99432.06;5025429;28;19933;-70
2022/03/25 07:45:46;;;;;;;;;;;;;;;10.31;32.28;99429.88;5023201;28;20019;-67
2022/03/25 07:48:13;;;;;;;;;;;;;;;10.32;32.35;99428.75;5030111;28;20356;-69
2022/03/25 07:50:38;;;;;;;;;;;;;;;10.34;32.31;99423.81;5029004;28;20308;-69
2022/03/25 07:53:05;;;;;;;;;;;;;;;10.39;32.17;99422.16;5026852;28;19931;-69
2022/03/25 07:55:31;;;;;;;;;;;;;;;10.42;31.90;99421.63;5025997;28;19925;-68
2022/03/25 07:57:57;;;;;;;;;;;;;;;10.49;32.09;99419.41;5024377;28;19970;-67
2022/03/25 08:00:24;;;;;;;;;;;;;;;10.53;31.91;99420.44;5029942;28;20369;-67
2022/03/25 08:02:52;;;;;;;;;;;;;;;10.53;32.05;99414.16;5012098;28;20032;-66
2022/03/25 08:05:18;;;;;;;;;;;;;;;10.60;31.99;99423.66;5030575;28;19960;-66
2022/03/25 08:07:46;;;;;;;;;;;;;;;10.64;31.86;99419.28;5027919;28;19932;-68
2022/03/25 08:10:12;;;;;;;;;;;;;;;10.66;31.70;99410.78;5027054;28;19929;-68
2022/03/25 08:12:44;;;;;;;;;;;;;;;10.60;31.80;99420.13;5029505;28;19925;-67
2022/03/25 08:15:11;;;;;;;;;;;;;;;10.62;31.55;99410.56;5028121;28;19925;-69
2022/03/25 08:17:47;;;;;;;;;;;;;;;10.55;31.72;99420.19;5020076;28;19960;-68
2022/03/25 08:20:13;;;;;;;;;;;;;;;10.52;31.28;99391.50;5029037;28;19925;-68
2022/03/25 08:22:40;;;;;;;;;;;;;;;10.44;31.77;99411.22;5029240;28;19925;-69
2022/03/25 08:27:51;;;;;;;;;;;;;;;10.57;31.97;99409.78;5016258;28;19925;-68
2022/03/25 08:30:16;;;;;;;;;;;;;;;10.49;31.85;99414.72;5028525;28;20301;-68
2022/03/25 08:32:42;;;;;;;;;;;;;;;10.38;32.05;99409.59;5023479;28;19924;-69
2022/03/25 08:35:09;;;;;;;;;;;;;;;10.47;31.60;99413.41;5018791;28;19926;-67
2022/03/25 08:37:35;;;;;;;;;;;;;;;10.47;31.56;99413.41;5044495;28;20385;-69
2022/03/25 08:40:03;;;;;;;;;;;;;;;10.45;31.49;99402.75;5016128;28;19979;-68
2022/03/25 08:42:29;;;;;;;;;;;;;;;10.48;31.45;99407.63;5018032;28;19925;-68
2022/03/25 08:44:55;;;;;;;;;;;;;;;10.40;31.45;99412.84;4985357;28;20036;-68
2022/03/25 08:47:21;;;;;;;;;;;;;;;10.32;31.46;99404.16;5021455;28;19929;-67
2022/03/25 08:49:48;;;;;;;;;;;;;;;10.28;31.52;99405.81;5023847;28;19951;-69
2022/03/25 08:52:14;;;;;;;;;;;;;;;10.12;31.76;99396.06;5027595;28;20027;-75
2022/03/25 08:54:40;;;;;;;;;;;;;;;10.07;31.84;99399.66;5020565;28;19925;-74
2022/03/25 08:57:08;;;;;;;;;;;;;;;10.15;31.75;99399.06;5027259;28;19935;-74
2022/03/25 08:59:34;;;;;;;;;;;;;;;10.17;31.91;99398.78;5028867;28;19960;-74
2022/03/25 09:02:00;;;;;;;;;;;;;;;10.20;32.03;99398.22;5024708;28;19964;-74
2022/03/25 09:04:26;;;;;;;;;;;;;;;10.11;31.96;99395.28;5012379;28;19972;-74
2022/03/25 09:06:52;;;;;;;;;;;;;;;10.08;32.16;99399.38;5027398;28;19932;-75
2022/03/25 09:09:18;;;;;;;;;;;;;;;10.14;32.31;99399.34;5024979;28;19925;-75
2022/03/25 09:11:44;;;;;;;;;;;;;;;10.33;32.01;99396.78;5030095;28;19925;-75
2022/03/25 09:14:11;;;;;;;;;;;;;;;10.28;32.08;99397.63;5020980;28;19932;-74
2022/03/25 09:16:37;;;;;;;;;;;;;;;10.48;31.91;99396.69;5026393;28;19959;-75
2022/03/25 09:19:03;;;;;;;;;;;;;;;10.50;31.96;99391.75;5028279;28;20468;-75
2022/03/25 09:21:29;;;;;;;;;;;;;;;10.53;32.08;99390.38;5016468;28;20032;-75
2022/03/25 09:23:55;;;;;;;;;;;;;;;10.56;31.92;99389.81;5018743;28;20413;-75
2022/03/25 09:26:21;;;;;;;;;;;;;;;10.36;32.29;99386.09;5019506;28;20022;-67
2022/03/25 09:28:46;;;;;;;;;;;;;;;10.40;32.39;99391.00;5013168;28;19972;-69
2022/03/25 09:31:13;;;;;;;;;;;;;;;10.48;32.44;99388.50;5044096;28;20024;-67
2022/03/25 09:33:39;;;;;;;;;;;;;;;10.61;32.24;99388.97;5021245;28;20400;-68
2022/03/25 09:36:05;;;;;;;;;;;;;;;10.67;32.08;99387.00;5018597;28;20028;-68
2022/03/25 09:38:31;;;;;;;;;;;;;;;10.78;32.11;99388.56;5029208;28;20028;-68
2022/03/25 09:40:57;;;;;;;;;;;;;;;10.93;31.96;99387.59;5031134;28;19925;-66
2022/03/25 09:43:24;;;;;;;;;;;;;;;10.95;31.96;99385.41;5022457;28;19929;-67
2022/03/25 09:45:50;;;;;;;;;;;;;;;11.10;31.44;99387.19;5030187;28;19932;-68
2022/03/25 09:48:17;;;;;;;;;;;;;;;11.23;31.29;99380.22;5033808;28;19925;-67
2022/03/25 09:50:43;;;;;;;;;;;;;;;11.35;31.04;99382.53;5034382;28;20364;-66
2022/03/25 09:53:09;;;;;;;;;;;;;;;11.51;30.65;99379.63;5030873;28;20396;-66
2022/03/25 09:55:37;;;;;;;;;;;;;;;11.59;30.62;99370.78;5029745;28;19936;-69
2022/03/25 09:58:03;;;;;;;;;;;;;;;11.61;30.62;99371.31;5031144;28;19929;-71
2022/03/25 10:00:30;;;;;;;;;;;;;;;11.63;30.35;99371.84;5025280;28;19925;-67
2022/03/25 10:02:55;;;;;;;;;;;;;;;11.63;30.34;99366.34;5021389;28;20424;-68
2022/03/25 10:05:22;;;;;;;;;;;;;;;11.65;30.34;99377.81;5025468;28;20027;-68
2022/03/25 10:07:51;;;;;;;;;;;;;;;11.66;30.38;99370.44;5023428;28;19925;-68
2022/03/25 10:10:18;;;;;;;;;;;;;;;11.72;30.50;99367.34;5010969;28;19979;-68
2022/03/25 10:12:44;;;;;;;;;;;;;;;11.78;30.54;99374.38;5022087;28;20015;-68
2022/03/25 10:15:14;;;;;;;;;;;;;;;11.88;30.55;99356.19;5019416;28;19925;-68
2022/03/25 10:17:44;;;;;;;;;;;;;;;11.95;30.37;99367.59;5032664;28;20423;-68
2022/03/25 10:20:10;;;;;;;;;;;;;;;11.97;30.50;99359.88;5028790;28;19979;-68
2022/03/25 10:22:37;;;;;;;;;;;;;;;11.91;30.40;99356.41;5006140;28;19960;-68
2022/03/25 10:25:09;;;;;;;;;;;;;;;11.97;30.41;99359.88;5032754;28;19925;-68
2022/03/25 10:27:35;;;;;;;;;;;;;;;12.03;30.56;99357.94;5031141;28;19929;-68
2022/03/25 10:30:05;;;;;;;;;;;;;;;12.12;30.36;99364.38;5026469;28;19925;-68
2022/03/25 10:32:31;;;;;;;;;;;;;;;12.17;30.27;99344.28;5029375;28;19924;-68
2022/03/25 10:35:06;;;;;;;;;;;;;;;12.29;29.92;99361.13;5032440;28;20399;-68
2022/03/25 10:37:33;;;;;;;;;;;;;;;12.28;30.04;99350.47;5029386;28;19929;-66
2022/03/25 10:40:00;;;;;;;;;;;;;;;12.32;30.13;99352.28;5023215;28;19932;-68
2022/03/25 10:42:25;;;;;;;;;;;;;;;12.38;30.14;99349.50;5030871;28;20397;-69
2022/03/25 10:44:51;;;;;;;;;;;;;;;12.41;30.24;99355.19;5030240;28;19967;-68
2022/03/25 10:47:24;;;;;;;;;;;;;;;12.44;30.03;99354.59;5027537;28;19968;-69
2022/03/25 10:49:51;;;;;;;;;;;;;;;12.53;30.17;99352.00;5024963;28;19948;-70
2022/03/25 10:52:22;;;;;;;;;;;;;;;12.60;30.15;99343.38;5030972;28;19932;-68
2022/03/25 10:54:48;;;;;;;;;;;;;;;12.66;30.04;99344.91;5028716;28;19932;-69
2022/03/25 10:57:15;;;;;;;;;;;;;;;12.71;30.04;99344.03;5025952;28;20377;-68
2022/03/25 10:59:41;;;;;;;;;;;;;;;12.64;30.20;99336.19;5027021;28;19932;-69
2022/03/25 11:02:08;;;;;;;;;;;;;;;12.56;30.36;99343.16;5036073;28;20019;-69
2022/03/25 11:04:34;;;;;;;;;;;;;;;12.55;30.43;99336.06;5024890;28;19932;-71
2022/03/25 11:07:03;;;;;;;;;;;;;;;12.52;30.47;99339.41;5027144;28;20681;-68
2022/03/25 11:09:30;;;;;;;;;;;;;;;12.58;30.31;99337.38;5024905;28;20415;-67
2022/03/25 11:11:56;;;;;;;;;;;;;;;12.59;30.42;99337.06;5028536;28;19925;-68
2022/03/25 11:14:24;;;;;;;;;;;;;;;12.61;30.43;99334.03;5032456;28;20023;-68
2022/03/25 11:16:53;;;;;;;;;;;;;;;12.47;30.80;99331.22;5028690;28;20308;-69
2022/03/25 11:19:21;;;;;;;;;;;;;;;12.51;30.79;99334.19;5024485;28;19931;-69
2022/03/25 11:21:48;;;;;;;;;;;;;;;12.51;30.60;99331.44;5032318;28;20315;-68
2022/03/25 11:24:17;;;;;;;;;;;;;;;12.46;30.53;99324.94;5030722;28;19940;-68
2022/03/25 11:26:45;;;;;;;;;;;;;;;12.51;30.47;99331.44;5026532;28;19931;-66
2022/03/25 11:29:12;;;;;;;;;;;;;;;12.43;30.46;99325.56;5031684;28;19925;-68
2022/03/25 11:31:57;;;;;;;;;;;;;;;12.37;30.79;99328.66;5032090;28;19960;-67
2022/03/25 11:34:26;;;;;;;;;;;;;;;12.29;30.98;99322.75;5030788;28;19925;-68
2022/03/25 11:37:14;;;;;;;;;;;;;;;12.36;30.85;99318.81;5027631;28;19975;-68
2022/03/25 11:39:40;;;;;;;;;;;;;;;12.38;30.69;99320.13;5032468;28;20044;-67
2022/03/25 11:42:07;;;;;;;;;;;;;;;12.32;30.87;99321.34;5029103;28;20389;-69
2022/03/25 11:44:33;;;;;;;;;;;;;;;12.34;30.94;99319.94;5016586;28;19925;-68
2022/03/25 11:47:15;;;;;;;;;;;;;;;12.32;30.99;99311.16;5030038;28;19964;-67
2022/03/25 11:49:43;;;;;;;;;;;;;;;12.37;30.88;99304.00;5032174;28;19964;-67
2022/03/25 11:52:26;;;;;;;;;;;;;;;12.36;30.90;99316.88;5018646;28;19925;-67
2022/03/25 11:54:55;;;;;;;;;;;;;;;12.31;31.12;99306.81;5025004;28;20409;-68
2022/03/25 11:57:22;;;;;;;;;;;;;;;12.34;31.09;99302.66;5030464;28;20039;-69
2022/03/25 11:59:49;;;;;;;;;;;;;;;12.36;30.95;99296.88;5030702;28;19932;-67
2022/03/25 12:02:22;;;;;;;;;;;;;;;12.32;31.14;99296.66;5027489;28;20383;-67
2022/03/25 12:04:49;;;;;;;;;;;;;;;12.32;31.17;99291.19;5028486;28;19925;-66
2022/03/25 12:07:16;;;;;;;;;;;;;;;12.24;31.31;99291.84;5030984;28;19929;-65
2022/03/25 12:09:45;;;;;;;;;;;;;;;12.16;31.29;99279.63;5027110;28;19925;-66
2022/03/25 12:12:11;;;;;;;;;;;;;;;12.19;31.20;99279.84;5019124;28;19925;-66
2022/03/25 12:15:04;;;;;;;;;;;;;;;12.13;31.46;99285.72;5027270;28;19925;-67
2022/03/25 12:17:30;;;;;;;;;;;;;;;12.12;31.67;99279.44;5031437;28;19932;-67
2022/03/25 12:19:57;;;;;;;;;;;;;;;12.11;31.71;99279.72;5025594;28;19929;-64
2022/03/25 12:22:30;;;;;;;;;;;;;;;12.17;31.59;99284.84;5023183;28;20381;-65
2022/03/25 12:24:58;;;;;;;;;;;;;;;12.14;31.77;99279.13;5020137;28;19933;-65
2022/03/25 12:27:24;;;;;;;;;;;;;;;12.13;31.78;99274.75;5031562;28;19967;-65
2022/03/25 12:29:51;;;;;;;;;;;;;;;12.20;31.70;99286.16;5028894;28;20036;-66
2022/03/25 12:32:18;;;;;;;;;;;;;;;12.28;31.74;99288.22;5024454;28;19925;-66
2022/03/25 12:34:49;;;;;;;;;;;;;;;12.23;31.70;99273.78;5046081;28;19939;-66
2022/03/25 12:37:22;;;;;;;;;;;;;;;11.97;32.23;99288.66;5038007;28;19929;-65
2022/03/25 12:39:48;;;;;;;;;;;;;;;11.83;32.40;99272.16;5038180;28;19936;-69
2022/03/25 12:42:14;;;;;;;;;;;;;;;11.75;32.40;99273.63;5030156;28;19933;-69
2022/03/25 12:44:40;;;;;;;;;;;;;;;11.81;32.50;99266.16;5015348;28;19932;-70
2022/03/25 12:47:06;;;;;;;;;;;;;;;11.79;32.67;99262.91;5027173;28;20023;-70
2022/03/25 12:49:32;;;;;;;;;;;;;;;11.80;32.61;99269.19;5024686;28;19932;-71
2022/03/25 12:51:59;;;;;;;;;;;;;;;11.85;32.67;99260.88;5030271;28;20230;-71
2022/03/25 12:54:28;;;;;;;;;;;;;;;11.71;32.99;99258.91;5029009;28;20388;-71